Time;durP1;ratioP1;P1;durP2;ratioP2;P2;SDS_P1;SDS_P2;PMS_P1;PMS_P2;Temp;Humidity;BMP_temperature;BMP_pressure;BME280_temperature;BME280_humidity;BME280_pressure;Samples;Min_cycle;Max_cycle;Signal;HPM_P1;HPM_P2
2021/12/12 00:02:08;;;;;;;8.57;4.97;;;;;;;;;;5049695;28;20442;-54
2021/12/12 00:04:36;;;;;;;7.17;5.37;;;;;;;;;;5044120;28;20438;-51
2021/12/12 00:07:04;;;;;;;6.00;5.03;;;;;;;;;;5046959;28;20493;-52
2021/12/12 00:09:32;;;;;;;4.53;4.10;;;;;;;;;;5037901;28;20466;-56
2021/12/12 00:11:58;;;;;;;6.20;4.10;;;;;;;;;;5046004;28;20429;-52
2021/12/12 00:14:29;;;;;;;7.27;5.70;;;;;;;;;;5011954;28;23786;-52
2021/12/12 00:17:00;;;;;;;7.10;5.27;;;;;;;;;;5041496;28;20445;-53
2021/12/12 00:19:30;;;;;;;7.50;5.50;;;;;;;;;;5027123;28;20461;-52
2021/12/12 00:22:04;;;;;;;8.43;4.20;;;;;;;;;;5040946;28;20439;-53
2021/12/12 00:24:34;;;;;;;5.53;4.37;;;;;;;;;;5033449;28;20446;-53
2021/12/12 00:27:07;;;;;;;9.37;5.73;;;;;;;;;;5037018;28;20474;-52
2021/12/12 00:29:35;;;;;;;8.87;5.27;;;;;;;;;;5030764;28;20447;-53
2021/12/12 00:32:07;;;;;;;7.97;4.80;;;;;;;;;;5036264;28;20430;-54
2021/12/12 00:34:35;;;;;;;6.93;5.53;;;;;;;;;;5030328;28;20537;-52
2021/12/12 00:37:02;;;;;;;6.47;4.83;;;;;;;;;;5047850;28;20518;-52
2021/12/12 00:39:28;;;;;;;6.57;4.47;;;;;;;;;;5045132;28;20517;-53
2021/12/12 00:41:59;;;;;;;5.93;4.60;;;;;;;;;;5024324;28;20445;-54
2021/12/12 00:44:25;;;;;;;7.33;5.23;;;;;;;;;;5038273;28;20713;-52
2021/12/12 00:47:23;;;;;;;5.70;5.10;;;;;;;;;;5047903;28;20462;-54
2021/12/12 00:49:56;;;;;;;8.07;4.80;;;;;;;;;;5024023;28;20439;-53
2021/12/12 00:52:22;;;;;;;6.77;4.97;;;;;;;;;;5022906;28;20474;-52
2021/12/12 00:54:49;;;;;;;7.03;4.10;;;;;;;;;;5041551;28;20558;-54
2021/12/12 00:57:18;;;;;;;7.47;4.30;;;;;;;;;;5042489;28;20434;-53
2021/12/12 00:59:47;;;;;;;5.77;4.83;;;;;;;;;;5027084;28;20439;-52
2021/12/12 01:02:24;;;;;;;5.13;4.00;;;;;;;;;;5035633;28;20435;-54
2021/12/12 01:04:55;;;;;;;7.53;4.37;;;;;;;;;;5036538;28;20458;-52
2021/12/12 01:07:25;;;;;;;6.43;4.83;;;;;;;;;;5021196;28;20482;-57
2021/12/12 01:09:53;;;;;;;5.80;5.00;;;;;;;;;;5043395;28;20423;-53
2021/12/12 01:12:34;;;;;;;6.97;4.77;;;;;;;;;;5024251;28;20531;-53
2021/12/12 01:15:13;;;;;;;6.90;4.07;;;;;;;;;;5046156;28;20506;-55
2021/12/12 01:17:52;;;;;;;5.50;4.47;;;;;;;;;;5027581;28;20442;-52
2021/12/12 01:20:37;;;;;;;6.50;4.13;;;;;;;;;;5025019;28;20515;-52
2021/12/12 01:23:29;;;;;;;7.53;4.40;;;;;;;;;;5038760;28;21042;-52
2021/12/12 01:25:57;;;;;;;7.80;3.90;;;;;;;;;;5045642;28;20447;-52
2021/12/12 01:28:44;;;;;;;9.93;5.07;;;;;;;;;;5041745;28;21100;-52
2021/12/12 01:31:15;;;;;;;6.33;4.40;;;;;;;;;;5047177;28;20479;-51
2021/12/12 01:33:41;;;;;;;6.10;4.23;;;;;;;;;;5040257;28;20466;-54
2021/12/12 01:36:28;;;;;;;5.30;4.20;;;;;;;;;;5044117;28;20438;-52
2021/12/12 01:39:00;;;;;;;5.90;4.50;;;;;;;;;;5045991;28;20511;-52
2021/12/12 01:41:37;;;;;;;4.10;3.50;;;;;;;;;;5033799;28;20431;-52
2021/12/12 01:44:11;;;;;;;6.73;4.27;;;;;;;;;;5044417;28;20440;-51
2021/12/12 01:46:41;;;;;;;4.73;3.97;;;;;;;;;;5060361;28;20477;-51
2021/12/12 01:49:12;;;;;;;6.33;4.07;;;;;;;;;;5046247;28;20438;-54
2021/12/12 01:51:38;;;;;;;6.70;4.43;;;;;;;;;;5026013;28;20474;-52
2021/12/12 01:54:07;;;;;;;5.60;4.50;;;;;;;;;;5041076;28;20451;-51
2021/12/12 01:56:35;;;;;;;5.67;5.17;;;;;;;;;;5038885;28;21365;-51
2021/12/12 01:59:03;;;;;;;5.03;4.00;;;;;;;;;;5046627;28;20427;-53
2021/12/12 02:01:30;;;;;;;13.20;4.50;;;;;;;;;;5030205;28;20728;-51
2021/12/12 02:04:02;;;;;;;6.43;4.83;;;;;;;;;;5043871;28;20963;-52
2021/12/12 02:06:28;;;;;;;7.83;6.40;;;;;;;;;;5025633;28;20518;-51
2021/12/12 02:08:54;;;;;;;5.90;4.10;;;;;;;;;;5028033;28;20485;-52
2021/12/12 02:11:25;;;;;;;7.40;5.10;;;;;;;;;;5026609;28;20446;-53
2021/12/12 02:13:52;;;;;;;5.30;4.10;;;;;;;;;;5037647;28;20430;-53
2021/12/12 02:16:19;;;;;;;5.27;4.13;;;;;;;;;;5039197;28;20434;-53
2021/12/12 02:18:58;;;;;;;5.27;4.20;;;;;;;;;;5032663;28;20439;-52
2021/12/12 02:21:56;;;;;;;7.40;5.33;;;;;;;;;;5074861;28;20430;-54
2021/12/12 02:38:04;;;;;;;7.10;4.23;;;;;;;;;;5048392;28;20431;-53
2021/12/12 02:40:38;;;;;;;7.00;3.67;;;;;;;;;;5038523;28;20530;-52
2021/12/12 02:43:29;;;;;;;5.27;3.00;;;;;;;;;;5038153;28;20461;-52
2021/12/12 02:45:56;;;;;;;5.23;3.20;;;;;;;;;;5049329;28;20438;-52
2021/12/12 02:48:33;;;;;;;5.17;3.70;;;;;;;;;;5047607;28;20475;-52
2021/12/12 02:51:00;;;;;;;10.80;4.37;;;;;;;;;;5051841;28;20923;-52
2021/12/12 02:53:31;;;;;;;4.37;3.97;;;;;;;;;;5023592;28;21531;-53
2021/12/12 02:55:59;;;;;;;3.57;2.80;;;;;;;;;;5059366;28;21030;-52
2021/12/12 02:58:26;;;;;;;4.10;3.70;;;;;;;;;;5046497;28;20521;-53
2021/12/12 03:01:11;;;;;;;5.77;3.63;;;;;;;;;;5042562;28;20446;-53
2021/12/12 03:03:48;;;;;;;5.03;3.80;;;;;;;;;;5051779;28;20497;-53
2021/12/12 03:06:16;;;;;;;5.20;3.97;;;;;;;;;;5051713;28;20422;-52
2021/12/12 03:08:42;;;;;;;7.93;4.27;;;;;;;;;;5028528;28;20478;-52
2021/12/12 03:11:20;;;;;;;5.80;3.73;;;;;;;;;;5042927;28;20492;-53
2021/12/12 03:13:46;;;;;;;5.73;4.17;;;;;;;;;;5030645;28;20450;-53
2021/12/12 03:16:12;;;;;;;6.13;3.47;;;;;;;;;;5047647;28;21082;-52
2021/12/12 03:18:41;;;;;;;5.10;4.00;;;;;;;;;;5046486;28;20944;-52
2021/12/12 03:21:14;;;;;;;6.23;4.50;;;;;;;;;;5046113;28;20431;-53
2021/12/12 03:26:45;;;;;;;3.57;3.20;;;;;;;;;;5040335;28;20448;-52
2021/12/12 03:29:21;;;;;;;4.60;4.13;;;;;;;;;;5038988;28;20455;-54
2021/12/12 03:31:53;;;;;;;6.70;4.70;;;;;;;;;;5047173;28;20438;-53
2021/12/12 03:34:23;;;;;;;4.30;3.60;;;;;;;;;;5044999;28;20436;-52
2021/12/12 03:36:49;;;;;;;3.43;2.70;;;;;;;;;;5045772;28;20504;-53
2021/12/12 03:39:22;;;;;;;5.07;4.17;;;;;;;;;;5047081;28;20431;-53
2021/12/12 03:41:49;;;;;;;6.40;3.20;;;;;;;;;;5019837;28;20442;-52
2021/12/12 03:44:17;;;;;;;4.20;2.70;;;;;;;;;;5048802;28;20439;-51
2021/12/12 03:46:44;;;;;;;7.00;2.97;;;;;;;;;;5035875;28;20454;-52
2021/12/12 03:49:19;;;;;;;5.13;4.20;;;;;;;;;;5050069;28;20451;-53
2021/12/12 03:51:47;;;;;;;4.13;2.80;;;;;;;;;;5033261;28;20694;-53
2021/12/12 03:54:13;;;;;;;5.57;3.70;;;;;;;;;;5041665;28;20454;-53
2021/12/12 03:56:45;;;;;;;3.40;2.83;;;;;;;;;;5012317;28;20756;-51
2021/12/12 03:59:12;;;;;;;4.90;3.17;;;;;;;;;;5043564;28;20443;-51
2021/12/12 04:01:46;;;;;;;5.73;2.40;;;;;;;;;;5021914;28;20536;-51
2021/12/12 04:04:19;;;;;;;4.00;2.87;;;;;;;;;;5038264;28;20450;-50
2021/12/12 04:06:52;;;;;;;5.93;3.80;;;;;;;;;;5022203;28;20725;-51
2021/12/12 04:09:20;;;;;;;6.20;3.50;;;;;;;;;;5059952;28;20431;-51
2021/12/12 04:11:47;;;;;;;3.90;3.50;;;;;;;;;;5038409;28;20825;-56
2021/12/12 04:14:13;;;;;;;3.77;3.40;;;;;;;;;;5030310;28;20445;-52
2021/12/12 04:16:40;;;;;;;5.33;3.27;;;;;;;;;;5020131;28;20587;-52
2021/12/12 04:19:08;;;;;;;3.90;2.57;;;;;;;;;;5045812;28;20450;-53
2021/12/12 04:21:46;;;;;;;5.60;4.20;;;;;;;;;;5024880;28;20655;-55
2021/12/12 04:24:31;;;;;;;8.03;3.07;;;;;;;;;;5047705;28;20465;-52
2021/12/12 04:26:57;;;;;;;2.67;2.47;;;;;;;;;;5042036;28;20528;-53
2021/12/12 04:29:28;;;;;;;4.07;2.60;;;;;;;;;;5039484;28;20443;-52
2021/12/12 04:32:06;;;;;;;4.63;2.87;;;;;;;;;;5006153;28;23852;-53
2021/12/12 04:34:35;;;;;;;4.67;3.03;;;;;;;;;;5043532;28;20442;-52
2021/12/12 04:37:03;;;;;;;4.10;3.33;;;;;;;;;;5030190;28;21391;-53
2021/12/12 04:39:34;;;;;;;4.43;2.53;;;;;;;;;;5025549;28;20959;-53
2021/12/12 04:42:02;;;;;;;4.87;3.20;;;;;;;;;;5022599;28;20442;-53
2021/12/12 04:44:31;;;;;;;5.30;2.53;;;;;;;;;;5043918;28;20446;-52
2021/12/12 04:50:19;;;;;;;5.50;3.90;;;;;;;;;;5044288;28;20875;-52
2021/12/12 04:53:06;;;;;;;4.83;3.70;;;;;;;;;;5020633;28;20583;-53
2021/12/12 04:55:34;;;;;;;5.03;3.50;;;;;;;;;;5037419;28;20438;-53
2021/12/12 04:58:00;;;;;;;3.17;2.70;;;;;;;;;;5023773;28;20439;-52
2021/12/12 05:00:28;;;;;;;7.30;3.40;;;;;;;;;;5042726;28;20837;-52
2021/12/12 05:02:54;;;;;;;4.17;2.97;;;;;;;;;;4975546;28;20449;-51
2021/12/12 05:05:25;;;;;;;6.50;4.10;;;;;;;;;;5039789;28;20476;-51
2021/12/12 05:07:55;;;;;;;5.67;4.77;;;;;;;;;;5038046;28;20973;-51
2021/12/12 05:10:26;;;;;;;6.43;4.10;;;;;;;;;;5044315;28;20431;-52
2021/12/12 05:12:51;;;;;;;3.47;3.17;;;;;;;;;;5035529;28;20423;-52
2021/12/12 05:15:19;;;;;;;3.90;3.20;;;;;;;;;;5045554;28;20441;-51
2021/12/12 05:17:47;;;;;;;4.23;3.73;;;;;;;;;;5019371;28;20176;-52
2021/12/12 05:20:14;;;;;;;5.30;3.43;;;;;;;;;;5042026;28;20465;-52
2021/12/12 05:22:47;;;;;;;4.30;3.30;;;;;;;;;;5032843;28;20450;-52
2021/12/12 05:25:33;;;;;;;4.87;4.03;;;;;;;;;;5045994;28;20450;-52
2021/12/12 05:27:59;;;;;;;3.37;3.07;;;;;;;;;;5020448;28;20489;-52
2021/12/12 05:30:26;;;;;;;6.20;4.30;;;;;;;;;;5042462;28;20435;-52
2021/12/12 05:33:00;;;;;;;6.70;4.30;;;;;;;;;;5004218;28;20434;-51
2021/12/12 05:35:27;;;;;;;3.80;2.90;;;;;;;;;;5039456;28;20461;-52
2021/12/12 05:37:53;;;;;;;6.90;3.83;;;;;;;;;;5040241;28;20779;-53
2021/12/12 05:40:21;;;;;;;3.77;2.87;;;;;;;;;;5023877;28;21073;-53
2021/12/12 05:42:47;;;;;;;5.80;4.03;;;;;;;;;;5039885;28;20438;-52
2021/12/12 05:45:13;;;;;;;4.20;2.47;;;;;;;;;;5040453;28;20858;-53
2021/12/12 05:47:42;;;;;;;7.50;3.50;;;;;;;;;;5016931;28;20482;-53
2021/12/12 05:50:10;;;;;;;4.27;2.87;;;;;;;;;;5037886;28;20439;-52
2021/12/12 05:52:36;;;;;;;4.90;3.33;;;;;;;;;;5021039;28;20438;-51
2021/12/12 05:55:03;;;;;;;5.83;3.43;;;;;;;;;;5043655;28;20433;-52
2021/12/12 05:57:30;;;;;;;5.03;2.70;;;;;;;;;;5037348;28;20442;-52
2021/12/12 05:59:57;;;;;;;2.90;2.47;;;;;;;;;;5058417;28;20954;-53
2021/12/12 06:02:43;;;;;;;4.50;2.90;;;;;;;;;;5034129;28;20442;-53
2021/12/12 06:05:12;;;;;;;4.70;2.80;;;;;;;;;;5037854;28;20854;-53
2021/12/12 06:07:49;;;;;;;5.87;3.33;;;;;;;;;;5037320;28;20545;-53
2021/12/12 06:10:18;;;;;;;4.93;3.93;;;;;;;;;;5033646;28;20470;-57
2021/12/12 06:12:44;;;;;;;5.43;2.90;;;;;;;;;;5044578;28;20474;-53
2021/12/12 06:15:11;;;;;;;3.70;3.27;;;;;;;;;;5046226;28;20484;-53
2021/12/12 06:17:47;;;;;;;5.10;4.30;;;;;;;;;;5048063;28;20443;-52
2021/12/12 06:20:16;;;;;;;5.77;3.00;;;;;;;;;;5040567;28;20457;-52
2021/12/12 06:22:55;;;;;;;5.03;3.90;;;;;;;;;;5047319;28;20497;-54
2021/12/12 06:25:29;;;;;;;8.50;3.30;;;;;;;;;;5042145;28;20495;-53
2021/12/12 06:27:56;;;;;;;3.70;2.93;;;;;;;;;;5042294;28;20513;-52
2021/12/12 06:30:29;;;;;;;3.40;2.77;;;;;;;;;;5047188;28;20455;-52
2021/12/12 06:32:57;;;;;;;3.20;2.80;;;;;;;;;;5047335;28;20437;-53
2021/12/12 06:35:57;;;;;;;4.87;3.53;;;;;;;;;;5052322;28;20426;-54
2021/12/12 06:38:39;;;;;;;3.33;2.83;;;;;;;;;;5048043;28;20450;-51
2021/12/12 06:41:08;;;;;;;6.07;3.20;;;;;;;;;;5036694;28;20441;-51
2021/12/12 06:43:34;;;;;;;4.13;3.53;;;;;;;;;;5046508;28;20446;-52
2021/12/12 06:46:01;;;;;;;6.07;3.20;;;;;;;;;;5044471;28;21117;-52
2021/12/12 06:48:27;;;;;;;3.93;3.33;;;;;;;;;;5050683;28;20555;-52
2021/12/12 06:50:55;;;;;;;9.00;3.40;;;;;;;;;;5032089;28;20842;-53
2021/12/12 06:53:22;;;;;;;6.40;3.90;;;;;;;;;;5036014;28;20450;-57
2021/12/12 06:55:48;;;;;;;3.93;2.60;;;;;;;;;;5035260;28;20434;-53
2021/12/12 06:58:15;;;;;;;10.23;3.60;;;;;;;;;;4985497;28;21004;-52
2021/12/12 07:00:41;;;;;;;5.27;4.10;;;;;;;;;;5047756;28;20530;-53
2021/12/12 07:03:09;;;;;;;5.03;3.57;;;;;;;;;;5055504;28;20501;-52
2021/12/12 07:05:36;;;;;;;6.07;3.47;;;;;;;;;;5047960;28;20435;-53
2021/12/12 07:08:03;;;;;;;5.20;2.80;;;;;;;;;;5027718;28;21047;-52
2021/12/12 07:10:30;;;;;;;4.00;3.63;;;;;;;;;;5026757;28;20495;-53
2021/12/12 07:13:00;;;;;;;5.10;3.57;;;;;;;;;;5050112;28;20962;-53
2021/12/12 07:15:30;;;;;;;5.00;3.60;;;;;;;;;;5048266;28;20438;-53
2021/12/12 07:17:57;;;;;;;5.97;4.00;;;;;;;;;;5052500;28;20427;-53
2021/12/12 07:20:23;;;;;;;5.10;4.50;;;;;;;;;;5030710;28;20434;-53
2021/12/12 07:22:53;;;;;;;3.60;3.17;;;;;;;;;;5019664;28;20439;-53
2021/12/12 07:25:23;;;;;;;4.50;3.40;;;;;;;;;;5047239;28;21530;-54
2021/12/12 07:27:52;;;;;;;9.47;4.87;;;;;;;;;;5027219;28;20947;-53
2021/12/12 07:30:20;;;;;;;6.20;3.70;;;;;;;;;;5050738;28;20528;-54
2021/12/12 07:33:00;;;;;;;4.23;3.83;;;;;;;;;;5044660;28;20557;-53
2021/12/12 07:35:26;;;;;;;5.67;4.20;;;;;;;;;;5047752;28;21320;-53
2021/12/12 07:37:53;;;;;;;7.77;4.23;;;;;;;;;;5030464;28;20454;-52
2021/12/12 07:40:19;;;;;;;4.23;3.40;;;;;;;;;;5042570;28;20437;-52
2021/12/12 07:42:46;;;;;;;5.83;3.60;;;;;;;;;;5010364;28;20459;-53
2021/12/12 07:45:12;;;;;;;6.10;3.40;;;;;;;;;;5045899;28;20437;-54
2021/12/12 07:47:38;;;;;;;4.57;3.67;;;;;;;;;;5033728;28;20470;-54
2021/12/12 07:50:05;;;;;;;3.87;3.27;;;;;;;;;;5047226;28;20429;-53
2021/12/12 07:52:31;;;;;;;4.30;3.13;;;;;;;;;;5022825;28;20473;-52
2021/12/12 07:55:00;;;;;;;5.23;3.27;;;;;;;;;;5043788;28;20873;-52
2021/12/12 07:57:28;;;;;;;7.50;3.67;;;;;;;;;;5004790;28;20521;-53
2021/12/12 07:59:54;;;;;;;3.33;3.03;;;;;;;;;;5045942;28;21608;-53
2021/12/12 08:02:20;;;;;;;4.07;3.00;;;;;;;;;;5013340;28;20455;-52
2021/12/12 08:04:46;;;;;;;4.13;2.37;;;;;;;;;;5039919;28;20419;-53
2021/12/12 08:07:14;;;;;;;3.83;3.00;;;;;;;;;;5023373;28;20467;-54
2021/12/12 08:09:42;;;;;;;5.10;3.83;;;;;;;;;;5040282;28;20442;-54
2021/12/12 08:12:14;;;;;;;4.23;2.70;;;;;;;;;;5000084;28;20547;-54
2021/12/12 08:14:40;;;;;;;6.40;3.37;;;;;;;;;;5038948;28;20438;-52
2021/12/12 08:17:06;;;;;;;3.33;2.23;;;;;;;;;;5018173;28;21063;-52
2021/12/12 08:19:33;;;;;;;5.10;2.93;;;;;;;;;;5027471;28;20493;-53
2021/12/12 08:22:26;;;;;;;2.83;2.20;;;;;;;;;;5027191;28;20526;-53
2021/12/12 08:24:57;;;;;;;4.90;2.80;;;;;;;;;;5074758;28;20431;-53
2021/12/12 08:27:23;;;;;;;2.90;2.17;;;;;;;;;;5025620;28;20462;-54
2021/12/12 08:29:51;;;;;;;3.70;2.50;;;;;;;;;;5042661;28;20442;-53
2021/12/12 08:32:38;;;;;;;2.23;2.03;;;;;;;;;;5033388;28;20442;-54
2021/12/12 08:35:16;;;;;;;3.60;2.27;;;;;;;;;;5037622;28;20457;-54
2021/12/12 08:37:43;;;;;;;2.77;2.50;;;;;;;;;;5039593;28;20510;-53
2021/12/12 08:40:11;;;;;;;5.43;2.10;;;;;;;;;;5034931;28;20427;-53
2021/12/12 08:43:09;;;;;;;5.43;2.10;;;;;;;;;;5036919;28;20431;-55
2021/12/12 08:45:44;;;;;;;3.50;3.20;;;;;;;;;;5041946;28;20953;-54
2021/12/12 08:48:10;;;;;;;4.60;2.70;;;;;;;;;;5017450;28;20482;-53
2021/12/12 08:50:36;;;;;;;4.03;3.20;;;;;;;;;;5040802;28;20500;-53
2021/12/12 08:53:06;;;;;;;5.03;2.50;;;;;;;;;;5025344;28;20456;-54
2021/12/12 08:55:35;;;;;;;2.60;2.17;;;;;;;;;;5037699;28;20438;-53
2021/12/12 08:58:14;;;;;;;3.00;2.43;;;;;;;;;;5042480;28;20442;-52
2021/12/12 09:01:01;;;;;;;5.00;2.90;;;;;;;;;;5045737;28;20430;-53
2021/12/12 09:03:27;;;;;;;3.60;2.33;;;;;;;;;;5018099;28;21440;-53
2021/12/12 09:05:53;;;;;;;4.53;2.80;;;;;;;;;;5043684;28;20453;-57
2021/12/12 09:08:24;;;;;;;2.90;2.33;;;;;;;;;;5039882;28;21197;-54
2021/12/12 09:10:56;;;;;;;3.07;2.87;;;;;;;;;;5042331;28;20466;-53
2021/12/12 09:13:29;;;;;;;1.90;1.63;;;;;;;;;;5005428;28;21121;-54
2021/12/12 09:15:56;;;;;;;2.17;1.97;;;;;;;;;;5048299;28;20427;-53
2021/12/12 09:18:25;;;;;;;2.13;1.90;;;;;;;;;;5041010;28;20442;-53
2021/12/12 09:21:13;;;;;;;2.83;2.63;;;;;;;;;;5045348;28;20415;-53
2021/12/12 09:23:46;;;;;;;3.80;1.80;;;;;;;;;;5027465;28;20454;-52
2021/12/12 09:26:18;;;;;;;2.80;2.40;;;;;;;;;;5045745;28;20450;-54
2021/12/12 09:28:46;;;;;;;2.07;1.87;;;;;;;;;;5038126;28;20851;-53
2021/12/12 09:31:17;;;;;;;3.13;2.10;;;;;;;;;;5039005;28;20437;-54
2021/12/12 09:33:48;;;;;;;3.30;2.17;;;;;;;;;;5056236;28;20484;-58
2021/12/12 09:36:34;;;;;;;2.90;2.60;;;;;;;;;;5039825;28;20423;-53
2021/12/12 09:39:02;;;;;;;2.07;1.77;;;;;;;;;;5027722;28;20427;-53
2021/12/12 09:41:45;;;;;;;3.57;2.20;;;;;;;;;;5045771;28;20443;-52
2021/12/12 09:44:48;;;;;;;2.20;1.87;;;;;;;;;;5031316;28;20430;-54
2021/12/12 09:47:27;;;;;;;2.20;1.70;;;;;;;;;;5017705;28;20477;-54
2021/12/12 09:53:03;;;;;;;2.17;1.73;;;;;;;;;;5041150;28;20859;-53
2021/12/12 09:55:34;;;;;;;2.57;2.27;;;;;;;;;;5020935;28;20819;-53
2021/12/12 09:58:13;;;;;;;2.30;1.53;;;;;;;;;;5031182;28;20461;-53
2021/12/12 10:01:09;;;;;;;3.07;2.00;;;;;;;;;;5035888;28;20538;-52
2021/12/12 10:03:45;;;;;;;2.00;1.50;;;;;;;;;;5020712;28;20443;-53
2021/12/12 10:06:14;;;;;;;2.33;1.67;;;;;;;;;;5044457;28;20442;-56
2021/12/12 10:08:59;;;;;;;3.47;2.20;;;;;;;;;;5024082;28;20585;-54
2021/12/12 10:11:39;;;;;;;1.87;1.67;;;;;;;;;;5040453;28;20462;-55
2021/12/12 10:14:09;;;;;;;2.10;1.47;;;;;;;;;;4990987;28;20450;-55
2021/12/12 10:16:46;;;;;;;2.80;2.10;;;;;;;;;;5026337;28;20441;-53
2021/12/12 10:19:33;;;;;;;1.70;1.50;;;;;;;;;;5029375;28;20448;-54
2021/12/12 10:22:10;;;;;;;1.83;1.70;;;;;;;;;;5038108;28;20506;-53
2021/12/12 10:24:39;;;;;;;2.10;1.90;;;;;;;;;;5024329;28;20433;-53
2021/12/12 10:27:25;;;;;;;2.57;1.60;;;;;;;;;;5038477;28;20560;-58
2021/12/12 10:30:05;;;;;;;2.67;1.80;;;;;;;;;;5009703;28;20734;-53
2021/12/12 10:32:34;;;;;;;1.87;1.63;;;;;;;;;;5030350;28;20442;-53
2021/12/12 10:35:07;;;;;;;2.40;1.50;;;;;;;;;;5007221;28;20542;-54
2021/12/12 10:37:35;;;;;;;1.80;1.63;;;;;;;;;;5049291;28;20962;-52
2021/12/12 10:40:01;;;;;;;4.03;1.50;;;;;;;;;;5004975;28;20505;-54
2021/12/12 10:42:28;;;;;;;3.93;1.70;;;;;;;;;;5048960;28;20442;-53
2021/12/12 10:45:06;;;;;;;2.90;1.60;;;;;;;;;;5006764;28;20465;-53
2021/12/12 10:47:39;;;;;;;2.43;1.73;;;;;;;;;;5034112;28;20901;-55
2021/12/12 10:50:05;;;;;;;2.83;1.70;;;;;;;;;;4993096;28;20450;-53
2021/12/12 10:52:37;;;;;;;2.07;1.50;;;;;;;;;;5036990;28;20446;-52
2021/12/12 10:55:09;;;;;;;2.43;1.70;;;;;;;;;;5017289;28;20441;-54
2021/12/12 10:57:36;;;;;;;3.30;2.00;;;;;;;;;;5041868;28;20949;-52
2021/12/12 11:00:14;;;;;;;1.87;1.60;;;;;;;;;;5034404;28;20451;-51
2021/12/12 11:03:17;;;;;;;5.33;1.77;;;;;;;;;;5042096;28;20533;-54
2021/12/12 11:06:05;;;;;;;3.23;1.63;;;;;;;;;;5031659;28;20427;-53
2021/12/12 11:09:03;;;;;;;1.60;1.50;;;;;;;;;;5008730;28;21078;-54
2021/12/12 11:11:34;;;;;;;1.77;1.60;;;;;;;;;;5014054;28;20450;-53
2021/12/12 11:14:11;;;;;;;3.00;2.40;;;;;;;;;;5007194;28;20454;-53
2021/12/12 11:16:39;;;;;;;4.30;1.80;;;;;;;;;;5039280;28;20497;-53
2021/12/12 11:19:11;;;;;;;2.00;1.90;;;;;;;;;;5034444;28;20438;-53
2021/12/12 11:21:38;;;;;;;2.93;1.60;;;;;;;;;;5042463;28;20439;-53
2021/12/12 11:24:14;;;;;;;6.23;1.90;;;;;;;;;;4987616;28;20960;-53
2021/12/12 11:26:47;;;;;;;2.33;1.87;;;;;;;;;;5037063;28;20451;-53
2021/12/12 11:29:15;;;;;;;4.37;1.80;;;;;;;;;;5041239;28;20442;-53
2021/12/12 11:32:10;;;;;;;2.07;1.67;;;;;;;;;;5044978;28;20426;-53
2021/12/12 11:34:37;;;;;;;4.40;2.10;;;;;;;;;;5017759;28;20529;-53
2021/12/12 11:37:12;;;;;;;2.73;1.50;;;;;;;;;;5039331;28;20444;-53
2021/12/12 11:39:39;;;;;;;2.10;1.20;;;;;;;;;;5024258;28;20981;-53
2021/12/12 11:42:26;;;;;;;2.63;1.30;;;;;;;;;;5041374;28;20438;-53
2021/12/12 11:45:04;;;;;;;2.50;1.60;;;;;;;;;;5029609;28;20433;-53
2021/12/12 11:47:56;;;;;;;1.87;1.60;;;;;;;;;;5041051;28;20471;-53
2021/12/12 11:50:36;;;;;;;3.17;1.60;;;;;;;;;;5038819;28;20438;-53
2021/12/12 11:53:31;;;;;;;4.50;1.93;;;;;;;;;;5037580;28;20437;-54
2021/12/12 11:56:07;;;;;;;1.80;1.57;;;;;;;;;;5039382;28;20919;-53
2021/12/12 11:58:33;;;;;;;3.90;1.43;;;;;;;;;;5018617;28;20454;-54
2021/12/12 12:01:04;;;;;;;1.87;1.50;;;;;;;;;;5041168;28;20973;-54
2021/12/12 12:03:51;;;;;;;3.43;1.40;;;;;;;;;;5033456;28;20465;-54
2021/12/12 12:06:40;;;;;;;3.37;2.00;;;;;;;;;;5038398;28;20450;-52
2021/12/12 12:09:07;;;;;;;1.70;1.50;;;;;;;;;;5024702;28;20479;-54
2021/12/12 12:11:40;;;;;;;2.13;1.50;;;;;;;;;;5057785;28;20944;-52
2021/12/12 12:14:12;;;;;;;2.30;1.50;;;;;;;;;;5018190;28;20457;-53
2021/12/12 12:16:48;;;;;;;2.43;1.50;;;;;;;;;;5039547;28;20431;-51
2021/12/12 12:19:18;;;;;;;1.70;1.33;;;;;;;;;;5054343;28;20522;-53
2021/12/12 12:22:08;;;;;;;2.90;1.37;;;;;;;;;;5045856;28;20427;-54
2021/12/12 12:24:43;;;;;;;2.60;1.63;;;;;;;;;;5025578;28;20431;-55
2021/12/12 12:27:16;;;;;;;2.27;1.80;;;;;;;;;;5038125;28;20766;-52
2021/12/12 12:29:49;;;;;;;3.00;1.53;;;;;;;;;;5007578;28;20451;-54
2021/12/12 12:32:35;;;;;;;2.07;1.50;;;;;;;;;;5036930;28;20446;-55
2021/12/12 12:35:19;;;;;;;5.17;2.20;;;;;;;;;;5013670;28;20951;-53
2021/12/12 12:38:04;;;;;;;2.23;1.57;;;;;;;;;;5031435;28;20430;-51
2021/12/12 12:40:43;;;;;;;3.90;2.50;;;;;;;;;;5040607;28;20449;-53
2021/12/12 12:43:25;;;;;;;2.90;2.00;;;;;;;;;;5023876;28;20958;-54
2021/12/12 12:46:10;;;;;;;2.70;2.23;;;;;;;;;;5028868;28;21050;-54
2021/12/12 12:48:55;;;;;;;3.03;2.40;;;;;;;;;;5037873;28;21011;-54
2021/12/12 12:51:27;;;;;;;3.67;2.77;;;;;;;;;;5021865;28;20568;-54
2021/12/12 12:54:12;;;;;;;3.77;2.90;;;;;;;;;;5033013;28;20430;-57
2021/12/12 12:56:58;;;;;;;6.07;2.60;;;;;;;;;;5044499;28;20501;-54
2021/12/12 12:59:42;;;;;;;2.13;1.80;;;;;;;;;;5039089;28;20438;-53
2021/12/12 13:02:21;;;;;;;2.50;1.80;;;;;;;;;;5004940;28;20450;-52
2021/12/12 13:05:08;;;;;;;2.50;1.97;;;;;;;;;;5039380;28;21033;-52
2021/12/12 13:07:41;;;;;;;3.57;2.20;;;;;;;;;;5034304;28;20540;-54
2021/12/12 13:10:11;;;;;;;2.20;1.90;;;;;;;;;;5041660;28;20451;-55
2021/12/12 13:12:45;;;;;;;2.33;1.80;;;;;;;;;;4997723;28;20501;-54
2021/12/12 13:15:26;;;;;;;2.03;1.80;;;;;;;;;;5014372;28;20815;-54
2021/12/12 13:18:16;;;;;;;3.03;2.00;;;;;;;;;;5044324;28;20427;-53
2021/12/12 13:20:42;;;;;;;2.77;2.40;;;;;;;;;;5021854;28;20446;-53
2021/12/12 13:23:10;;;;;;;2.40;1.70;;;;;;;;;;5046068;28;20428;-54
2021/12/12 13:25:38;;;;;;;2.80;2.07;;;;;;;;;;5014155;28;20448;-53
2021/12/12 13:28:35;;;;;;;5.60;2.67;;;;;;;;;;5042377;28;20502;-52
2021/12/12 13:31:16;;;;;;;2.57;2.10;;;;;;;;;;5029382;28;20933;-51
2021/12/12 13:33:58;;;;;;;2.33;2.10;;;;;;;;;;5038208;28;20452;-53
2021/12/12 13:36:27;;;;;;;2.60;2.13;;;;;;;;;;5018145;28;20505;-53
2021/12/12 13:39:04;;;;;;;2.50;1.90;;;;;;;;;;5042269;28;20435;-54
2021/12/12 13:41:33;;;;;;;3.87;2.50;;;;;;;;;;5037684;28;20449;-53
2021/12/12 13:44:09;;;;;;;2.93;2.67;;;;;;;;;;5045837;28;20522;-54
2021/12/12 13:46:47;;;;;;;4.40;2.33;;;;;;;;;;5030108;28;20470;-56
2021/12/12 13:49:23;;;;;;;1.97;1.77;;;;;;;;;;5039383;28;20939;-52
2021/12/12 13:51:52;;;;;;;4.57;2.70;;;;;;;;;;5029908;28;20441;-54
2021/12/12 13:54:36;;;;;;;4.03;1.87;;;;;;;;;;5041199;28;20439;-54
2021/12/12 13:57:11;;;;;;;2.63;2.17;;;;;;;;;;5012112;28;20437;-53
2021/12/12 13:59:47;;;;;;;3.30;2.27;;;;;;;;;;5033227;28;20478;-53
2021/12/12 14:02:14;;;;;;;3.73;2.87;;;;;;;;;;5032831;28;20843;-53
2021/12/12 14:05:02;;;;;;;2.10;1.90;;;;;;;;;;5040160;28;20964;-52
2021/12/12 14:07:38;;;;;;;3.30;2.20;;;;;;;;;;5022937;28;20498;-53
2021/12/12 14:10:06;;;;;;;4.77;2.03;;;;;;;;;;5040041;28;20538;-54
2021/12/12 14:12:33;;;;;;;7.30;2.13;;;;;;;;;;5012566;28;20438;-53
2021/12/12 14:15:00;;;;;;;3.40;1.90;;;;;;;;;;5043486;28;20442;-53
2021/12/12 14:17:35;;;;;;;2.47;1.97;;;;;;;;;;5032943;28;22325;-53
2021/12/12 14:20:06;;;;;;;2.90;1.67;;;;;;;;;;5035699;28;20524;-51
2021/12/12 14:22:32;;;;;;;3.37;2.00;;;;;;;;;;5017666;28;21492;-54
2021/12/12 14:25:00;;;;;;;2.73;1.50;;;;;;;;;;5035749;28;20439;-54
2021/12/12 14:27:26;;;;;;;1.97;1.73;;;;;;;;;;5028715;28;20470;-52
2021/12/12 14:29:57;;;;;;;1.80;1.20;;;;;;;;;;5055998;28;20458;-55
2021/12/12 14:32:27;;;;;;;2.93;1.87;;;;;;;;;;5024584;28;20454;-53
2021/12/12 14:35:01;;;;;;;2.67;1.90;;;;;;;;;;5040134;28;20890;-53
2021/12/12 14:37:28;;;;;;;2.73;2.00;;;;;;;;;;5039555;28;20438;-53
2021/12/12 14:40:22;;;;;;;2.60;1.73;;;;;;;;;;5041549;28;20454;-54
2021/12/12 14:42:53;;;;;;;3.53;2.30;;;;;;;;;;5014343;28;20852;-54
2021/12/12 14:45:20;;;;;;;3.13;1.90;;;;;;;;;;5043968;28;20438;-54
2021/12/12 14:47:48;;;;;;;2.10;1.73;;;;;;;;;;5046320;28;20470;-53
2021/12/12 14:50:46;;;;;;;1.50;1.40;;;;;;;;;;5025532;28;20439;-53
2021/12/12 14:53:22;;;;;;;3.67;1.63;;;;;;;;;;5045470;28;20461;-53
2021/12/12 14:56:27;;;;;;;3.97;1.83;;;;;;;;;;5039826;28;20465;-55
2021/12/12 14:58:57;;;;;;;3.87;1.47;;;;;;;;;;5025217;28;20437;-53
2021/12/12 15:01:24;;;;;;;2.53;1.80;;;;;;;;;;5032318;28;20445;-55
2021/12/12 15:03:52;;;;;;;2.23;1.30;;;;;;;;;;5039477;28;20471;-52
2021/12/12 15:06:29;;;;;;;2.23;1.90;;;;;;;;;;5041902;28;20450;-53
2021/12/12 15:08:57;;;;;;;2.90;1.70;;;;;;;;;;5046626;28;20469;-52
2021/12/12 15:11:32;;;;;;;3.70;2.20;;;;;;;;;;5051058;28;20464;-54
2021/12/12 15:13:58;;;;;;;3.40;1.93;;;;;;;;;;5045256;28;21320;-53
2021/12/12 15:16:27;;;;;;;2.77;2.33;;;;;;;;;;5044748;28;20419;-53
2021/12/12 15:18:53;;;;;;;9.40;2.40;;;;;;;;;;5059569;28;20929;-54
2021/12/12 15:21:33;;;;;;;2.87;1.77;;;;;;;;;;5016826;28;20442;-55
2021/12/12 15:24:01;;;;;;;4.27;2.53;;;;;;;;;;5045949;28;20426;-54
2021/12/12 15:26:36;;;;;;;3.73;3.27;;;;;;;;;;5023467;28;20452;-55
2021/12/12 15:29:04;;;;;;;4.10;3.37;;;;;;;;;;5040156;28;20485;-54
2021/12/12 15:31:35;;;;;;;2.57;2.00;;;;;;;;;;5043672;28;20465;-55
2021/12/12 15:34:25;;;;;;;2.43;2.00;;;;;;;;;;5029833;28;20458;-54
2021/12/12 15:36:57;;;;;;;3.53;3.23;;;;;;;;;;5044294;28;20446;-52
2021/12/12 15:39:24;;;;;;;4.83;2.43;;;;;;;;;;5021854;28;20620;-51
2021/12/12 15:41:52;;;;;;;3.10;2.13;;;;;;;;;;5041589;28;20448;-52